sensor_id;sensor_type;location;lat;lon;timestamp;P1;durP1;ratioP1;P2;durP2;ratioP2
59239;SDS011;45010;53.640;10.578;2022-09-16T00:02:42;0.50;;;0.28;;
59239;SDS011;45010;53.640;10.578;2022-09-16T00:05:44;1.13;;;0.52;;
59239;SDS011;45010;53.640;10.578;2022-09-16T00:08:46;1.38;;;0.40;;
59239;SDS011;45010;53.640;10.578;2022-09-16T00:11:47;1.48;;;0.40;;
59239;SDS011;45010;53.640;10.578;2022-09-16T00:14:47;0.50;;;0.30;;
59239;SDS011;45010;53.640;10.578;2022-09-16T00:17:48;0.82;;;0.30;;
59239;SDS011;45010;53.640;10.578;2022-09-16T00:20:49;1.40;;;0.30;;
59239;SDS011;45010;53.640;10.578;2022-09-16T00:23:51;2.05;;;0.40;;
59239;SDS011;45010;53.640;10.578;2022-09-16T00:26:51;0.85;;;0.40;;
59239;SDS011;45010;53.640;10.578;2022-09-16T00:29:51;0.60;;;0.30;;
59239;SDS011;45010;53.640;10.578;2022-09-16T00:32:52;0.60;;;0.40;;
59239;SDS011;45010;53.640;10.578;2022-09-16T00:36:14;0.60;;;0.30;;
59239;SDS011;45010;53.640;10.578;2022-09-16T00:39:17;0.52;;;0.40;;
59239;SDS011;45010;53.640;10.578;2022-09-16T00:42:17;0.63;;;0.50;;
59239;SDS011;45010;53.640;10.578;2022-09-16T00:45:19;1.23;;;0.40;;
59239;SDS011;45010;53.640;10.578;2022-09-16T00:48:21;2.33;;;0.38;;
59239;SDS011;45010;53.640;10.578;2022-09-16T00:51:24;0.40;;;0.20;;
59239;SDS011;45010;53.640;10.578;2022-09-16T00:54:25;0.60;;;0.50;;
59239;SDS011;45010;53.640;10.578;2022-09-16T00:57:26;0.82;;;0.50;;
59239;SDS011;45010;53.640;10.578;2022-09-16T01:00:26;1.25;;;0.40;;
59239;SDS011;45010;53.640;10.578;2022-09-16T01:03:27;0.70;;;0.40;;
59239;SDS011;45010;53.640;10.578;2022-09-16T01:06:29;0.50;;;0.40;;
59239;SDS011;45010;53.640;10.578;2022-09-16T01:09:31;0.40;;;0.30;;
59239;SDS011;45010;53.640;10.578;2022-09-16T01:12:32;0.60;;;0.40;;
59239;SDS011;45010;53.640;10.578;2022-09-16T01:22:45;0.93;;;0.30;;
59239;SDS011;45010;53.640;10.578;2022-09-16T01:26:02;1.17;;;0.35;;
59239;SDS011;45010;53.640;10.578;2022-09-16T01:32:53;1.48;;;0.40;;
59239;SDS011;45010;53.640;10.578;2022-09-16T01:36:03;0.85;;;0.40;;
59239;SDS011;45010;53.640;10.578;2022-09-16T01:39:47;0.30;;;0.25;;
59239;SDS011;45010;53.640;10.578;2022-09-16T01:46:20;0.60;;;0.20;;
59239;SDS011;45010;53.640;10.578;2022-09-16T01:49:34;0.52;;;0.30;;
59239;SDS011;45010;53.640;10.578;2022-09-16T01:56:09;1.00;;;0.30;;
59239;SDS011;45010;53.640;10.578;2022-09-16T01:59:21;0.57;;;0.32;;
59239;SDS011;45010;53.640;10.578;2022-09-16T02:02:30;1.70;;;0.40;;
59239;SDS011;45010;53.640;10.578;2022-09-16T02:05:40;1.30;;;0.30;;
59239;SDS011;45010;53.640;10.578;2022-09-16T02:08:51;0.38;;;0.30;;
59239;SDS011;45010;53.640;10.578;2022-09-16T02:11:56;0.43;;;0.30;;
59239;SDS011;45010;53.640;10.578;2022-09-16T02:15:02;0.95;;;0.50;;
59239;SDS011;45010;53.640;10.578;2022-09-16T02:18:10;0.98;;;0.40;;
59239;SDS011;45010;53.640;10.578;2022-09-16T02:21:14;0.60;;;0.50;;
59239;SDS011;45010;53.640;10.578;2022-09-16T02:24:17;0.47;;;0.30;;
59239;SDS011;45010;53.640;10.578;2022-09-16T02:27:20;1.58;;;0.30;;
59239;SDS011;45010;53.640;10.578;2022-09-16T02:30:22;0.85;;;0.40;;
59239;SDS011;45010;53.640;10.578;2022-09-16T02:33:23;0.60;;;0.30;;
59239;SDS011;45010;53.640;10.578;2022-09-16T02:36:32;0.40;;;0.30;;
59239;SDS011;45010;53.640;10.578;2022-09-16T02:39:35;2.22;;;0.43;;
59239;SDS011;45010;53.640;10.578;2022-09-16T02:42:38;1.33;;;0.40;;
59239;SDS011;45010;53.640;10.578;2022-09-16T02:51:57;0.63;;;0.50;;
59239;SDS011;45010;53.640;10.578;2022-09-16T02:55:14;0.80;;;0.22;;
59239;SDS011;45010;53.640;10.578;2022-09-16T02:58:23;0.85;;;0.20;;
59239;SDS011;45010;53.640;10.578;2022-09-16T03:01:24;1.20;;;0.40;;
59239;SDS011;45010;53.640;10.578;2022-09-16T03:04:27;1.00;;;0.40;;
59239;SDS011;45010;53.640;10.578;2022-09-16T03:07:28;1.02;;;0.35;;
59239;SDS011;45010;53.640;10.578;2022-09-16T03:10:31;1.45;;;0.35;;
59239;SDS011;45010;53.640;10.578;2022-09-16T03:17:07;0.65;;;0.30;;
59239;SDS011;45010;53.640;10.578;2022-09-16T03:20:20;1.85;;;0.30;;
59239;SDS011;45010;53.640;10.578;2022-09-16T03:23:32;0.60;;;0.20;;
59239;SDS011;45010;53.640;10.578;2022-09-16T03:33:25;1.02;;;0.77;;
59239;SDS011;45010;53.640;10.578;2022-09-16T03:36:39;1.55;;;0.30;;
59239;SDS011;45010;53.640;10.578;2022-09-16T03:39:51;0.55;;;0.47;;
59239;SDS011;45010;53.640;10.578;2022-09-16T03:42:54;0.80;;;0.45;;
59239;SDS011;45010;53.640;10.578;2022-09-16T03:45:56;0.70;;;0.40;;
59239;SDS011;45010;53.640;10.578;2022-09-16T03:48:57;0.68;;;0.30;;
59239;SDS011;45010;53.640;10.578;2022-09-16T03:51:58;0.68;;;0.30;;
59239;SDS011;45010;53.640;10.578;2022-09-16T03:54:58;1.67;;;0.40;;
59239;SDS011;45010;53.640;10.578;2022-09-16T03:57:58;0.98;;;0.45;;
59239;SDS011;45010;53.640;10.578;2022-09-16T04:00:59;0.50;;;0.30;;
59239;SDS011;45010;53.640;10.578;2022-09-16T04:04:00;0.50;;;0.30;;
59239;SDS011;45010;53.640;10.578;2022-09-16T04:07:01;2.33;;;0.40;;
59239;SDS011;45010;53.640;10.578;2022-09-16T04:10:01;0.70;;;0.32;;
59239;SDS011;45010;53.640;10.578;2022-09-16T04:13:03;1.13;;;0.40;;
59239;SDS011;45010;53.640;10.578;2022-09-16T04:16:03;1.05;;;0.47;;
59239;SDS011;45010;53.640;10.578;2022-09-16T04:19:04;1.58;;;0.50;;
59239;SDS011;45010;53.640;10.578;2022-09-16T04:22:04;0.50;;;0.32;;
59239;SDS011;45010;53.640;10.578;2022-09-16T04:25:04;1.20;;;0.40;;
59239;SDS011;45010;53.640;10.578;2022-09-16T04:28:05;0.43;;;0.22;;
59239;SDS011;45010;53.640;10.578;2022-09-16T04:31:08;0.52;;;0.30;;
59239;SDS011;45010;53.640;10.578;2022-09-16T04:34:10;1.65;;;0.40;;
59239;SDS011;45010;53.640;10.578;2022-09-16T04:37:11;0.30;;;0.30;;
59239;SDS011;45010;53.640;10.578;2022-09-16T04:40:11;1.52;;;0.40;;
59239;SDS011;45010;53.640;10.578;2022-09-16T04:43:12;1.50;;;0.43;;
59239;SDS011;45010;53.640;10.578;2022-09-16T04:46:12;0.22;;;0.22;;
59239;SDS011;45010;53.640;10.578;2022-09-16T04:49:13;0.30;;;0.30;;
59239;SDS011;45010;53.640;10.578;2022-09-16T04:52:13;0.82;;;0.50;;
59239;SDS011;45010;53.640;10.578;2022-09-16T04:55:14;0.50;;;0.30;;
59239;SDS011;45010;53.640;10.578;2022-09-16T04:58:14;1.70;;;0.38;;
59239;SDS011;45010;53.640;10.578;2022-09-16T05:01:15;0.38;;;0.30;;
59239;SDS011;45010;53.640;10.578;2022-09-16T05:04:21;0.90;;;0.38;;
59239;SDS011;45010;53.640;10.578;2022-09-16T05:07:21;0.80;;;0.30;;
59239;SDS011;45010;53.640;10.578;2022-09-16T05:10:22;0.80;;;0.50;;
59239;SDS011;45010;53.640;10.578;2022-09-16T05:13:22;0.30;;;0.30;;
59239;SDS011;45010;53.640;10.578;2022-09-16T05:16:22;1.08;;;0.30;;
59239;SDS011;45010;53.640;10.578;2022-09-16T05:19:23;0.80;;;0.30;;
59239;SDS011;45010;53.640;10.578;2022-09-16T05:22:23;0.20;;;0.20;;
59239;SDS011;45010;53.640;10.578;2022-09-16T05:25:24;0.35;;;0.20;;
59239;SDS011;45010;53.640;10.578;2022-09-16T05:28:24;0.95;;;0.30;;
59239;SDS011;45010;53.640;10.578;2022-09-16T05:31:26;0.63;;;0.30;;
59239;SDS011;45010;53.640;10.578;2022-09-16T05:34:28;0.30;;;0.28;;
59239;SDS011;45010;53.640;10.578;2022-09-16T05:37:28;0.38;;;0.30;;
59239;SDS011;45010;53.640;10.578;2022-09-16T05:40:28;0.70;;;0.30;;
59239;SDS011;45010;53.640;10.578;2022-09-16T05:43:29;0.93;;;0.32;;
59239;SDS011;45010;53.640;10.578;2022-09-16T05:46:30;1.65;;;0.40;;
59239;SDS011;45010;53.640;10.578;2022-09-16T05:49:30;1.05;;;0.20;;
59239;SDS011;45010;53.640;10.578;2022-09-16T05:52:30;0.90;;;0.30;;
59239;SDS011;45010;53.640;10.578;2022-09-16T05:55:30;0.50;;;0.30;;
59239;SDS011;45010;53.640;10.578;2022-09-16T05:58:32;0.75;;;0.20;;
59239;SDS011;45010;53.640;10.578;2022-09-16T06:01:34;2.05;;;0.70;;
59239;SDS011;45010;53.640;10.578;2022-09-16T06:04:34;1.33;;;0.30;;
59239;SDS011;45010;53.640;10.578;2022-09-16T06:07:34;1.05;;;0.30;;
59239;SDS011;45010;53.640;10.578;2022-09-16T06:10:38;1.63;;;0.40;;
59239;SDS011;45010;53.640;10.578;2022-09-16T06:13:39;1.33;;;0.50;;
59239;SDS011;45010;53.640;10.578;2022-09-16T06:16:39;0.73;;;0.40;;
59239;SDS011;45010;53.640;10.578;2022-09-16T06:19:40;0.88;;;0.22;;
59239;SDS011;45010;53.640;10.578;2022-09-16T06:22:41;0.85;;;0.30;;
59239;SDS011;45010;53.640;10.578;2022-09-16T06:25:41;1.00;;;0.30;;
59239;SDS011;45010;53.640;10.578;2022-09-16T06:28:41;1.58;;;0.30;;
59239;SDS011;45010;53.640;10.578;2022-09-16T06:31:42;1.48;;;0.35;;
59239;SDS011;45010;53.640;10.578;2022-09-16T06:34:43;1.02;;;0.55;;
59239;SDS011;45010;53.640;10.578;2022-09-16T06:37:43;2.00;;;0.32;;
59239;SDS011;45010;53.640;10.578;2022-09-16T06:40:43;0.82;;;0.30;;
59239;SDS011;45010;53.640;10.578;2022-09-16T06:43:44;0.98;;;0.30;;
59239;SDS011;45010;53.640;10.578;2022-09-16T06:46:44;1.52;;;0.40;;
59239;SDS011;45010;53.640;10.578;2022-09-16T06:49:44;0.88;;;0.32;;
59239;SDS011;45010;53.640;10.578;2022-09-16T06:52:49;1.55;;;0.30;;
59239;SDS011;45010;53.640;10.578;2022-09-16T06:55:49;1.73;;;0.45;;
59239;SDS011;45010;53.640;10.578;2022-09-16T06:58:50;3.10;;;0.32;;
59239;SDS011;45010;53.640;10.578;2022-09-16T07:01:52;2.47;;;0.40;;
59239;SDS011;45010;53.640;10.578;2022-09-16T07:04:53;0.75;;;0.20;;
59239;SDS011;45010;53.640;10.578;2022-09-16T07:07:53;1.40;;;0.40;;
59239;SDS011;45010;53.640;10.578;2022-09-16T07:10:54;0.73;;;0.40;;
59239;SDS011;45010;53.640;10.578;2022-09-16T07:13:59;2.00;;;0.45;;
59239;SDS011;45010;53.640;10.578;2022-09-16T07:17:00;0.68;;;0.38;;
59239;SDS011;45010;53.640;10.578;2022-09-16T07:20:01;1.02;;;0.43;;
59239;SDS011;45010;53.640;10.578;2022-09-16T07:23:01;0.73;;;0.50;;
59239;SDS011;45010;53.640;10.578;2022-09-16T07:26:05;1.65;;;0.30;;
59239;SDS011;45010;53.640;10.578;2022-09-16T07:29:09;0.70;;;0.40;;
59239;SDS011;45010;53.640;10.578;2022-09-16T07:32:10;2.15;;;0.40;;
59239;SDS011;45010;53.640;10.578;2022-09-16T07:35:11;0.75;;;0.38;;
59239;SDS011;45010;53.640;10.578;2022-09-16T07:38:11;1.50;;;0.57;;
59239;SDS011;45010;53.640;10.578;2022-09-16T07:41:13;2.00;;;0.45;;
59239;SDS011;45010;53.640;10.578;2022-09-16T07:44:16;3.30;;;0.50;;
59239;SDS011;45010;53.640;10.578;2022-09-16T07:47:17;4.32;;;0.55;;
59239;SDS011;45010;53.640;10.578;2022-09-16T07:50:17;1.75;;;0.50;;
59239;SDS011;45010;53.640;10.578;2022-09-16T07:53:18;1.60;;;0.45;;
59239;SDS011;45010;53.640;10.578;2022-09-16T07:56:19;0.60;;;0.40;;
59239;SDS011;45010;53.640;10.578;2022-09-16T07:59:21;2.42;;;0.60;;
59239;SDS011;45010;53.640;10.578;2022-09-16T08:02:22;3.15;;;0.60;;
59239;SDS011;45010;53.640;10.578;2022-09-16T08:05:22;2.10;;;0.73;;
59239;SDS011;45010;53.640;10.578;2022-09-16T08:08:22;2.05;;;0.60;;
59239;SDS011;45010;53.640;10.578;2022-09-16T08:11:23;2.28;;;0.70;;
59239;SDS011;45010;53.640;10.578;2022-09-16T08:14:23;2.42;;;0.63;;
59239;SDS011;45010;53.640;10.578;2022-09-16T08:17:24;1.13;;;0.68;;
59239;SDS011;45010;53.640;10.578;2022-09-16T08:20:24;1.42;;;0.68;;
59239;SDS011;45010;53.640;10.578;2022-09-16T08:23:26;3.42;;;0.55;;
59239;SDS011;45010;53.640;10.578;2022-09-16T08:26:26;1.10;;;0.43;;
59239;SDS011;45010;53.640;10.578;2022-09-16T08:29:26;1.95;;;0.60;;
59239;SDS011;45010;53.640;10.578;2022-09-16T08:32:27;1.52;;;0.57;;
59239;SDS011;45010;53.640;10.578;2022-09-16T08:35:27;1.35;;;0.60;;
59239;SDS011;45010;53.640;10.578;2022-09-16T08:38:27;0.77;;;0.50;;
59239;SDS011;45010;53.640;10.578;2022-09-16T08:45:05;0.88;;;0.45;;
59239;SDS011;45010;53.640;10.578;2022-09-16T08:51:34;2.67;;;0.40;;
59239;SDS011;45010;53.640;10.578;2022-09-16T08:54:39;0.73;;;0.45;;
59239;SDS011;45010;53.640;10.578;2022-09-16T08:57:54;1.60;;;0.40;;
59239;SDS011;45010;53.640;10.578;2022-09-16T09:00:56;2.55;;;0.52;;
59239;SDS011;45010;53.640;10.578;2022-09-16T09:04:00;1.35;;;0.55;;
59239;SDS011;45010;53.640;10.578;2022-09-16T09:07:10;3.28;;;0.80;;
59239;SDS011;45010;53.640;10.578;2022-09-16T09:11:04;1.00;;;0.38;;
59239;SDS011;45010;53.640;10.578;2022-09-16T09:17:06;3.15;;;0.88;;
59239;SDS011;45010;53.640;10.578;2022-09-16T09:20:35;2.05;;;0.47;;
59239;SDS011;45010;53.640;10.578;2022-09-16T09:24:01;2.88;;;0.50;;
59239;SDS011;45010;53.640;10.578;2022-09-16T09:27:15;2.70;;;0.68;;
59239;SDS011;45010;53.640;10.578;2022-09-16T09:30:41;0.98;;;0.40;;
59239;SDS011;45010;53.640;10.578;2022-09-16T09:34:02;1.83;;;0.57;;
59239;SDS011;45010;53.640;10.578;2022-09-16T09:40:42;1.08;;;0.40;;
59239;SDS011;45010;53.640;10.578;2022-09-16T09:47:34;2.72;;;0.60;;
59239;SDS011;45010;53.640;10.578;2022-09-16T09:50:39;1.52;;;0.50;;
59239;SDS011;45010;53.640;10.578;2022-09-16T09:53:44;1.35;;;0.63;;
59239;SDS011;45010;53.640;10.578;2022-09-16T10:00:14;2.47;;;0.40;;
59239;SDS011;45010;53.640;10.578;2022-09-16T10:03:16;3.03;;;0.75;;
59239;SDS011;45010;53.640;10.578;2022-09-16T10:06:18;1.27;;;0.40;;
59239;SDS011;45010;53.640;10.578;2022-09-16T10:09:27;1.65;;;0.52;;
59239;SDS011;45010;53.640;10.578;2022-09-16T10:12:34;3.00;;;0.70;;
59239;SDS011;45010;53.640;10.578;2022-09-16T10:15:35;2.42;;;0.63;;
59239;SDS011;45010;53.640;10.578;2022-09-16T10:18:36;4.22;;;0.95;;
59239;SDS011;45010;53.640;10.578;2022-09-16T10:21:38;3.70;;;1.05;;
59239;SDS011;45010;53.640;10.578;2022-09-16T10:24:41;3.03;;;0.75;;
59239;SDS011;45010;53.640;10.578;2022-09-16T10:27:42;5.05;;;1.02;;
59239;SDS011;45010;53.640;10.578;2022-09-16T10:30:55;5.10;;;0.90;;
59239;SDS011;45010;53.640;10.578;2022-09-16T10:33:58;5.82;;;1.15;;
59239;SDS011;45010;53.640;10.578;2022-09-16T10:37:00;3.63;;;0.98;;
59239;SDS011;45010;53.640;10.578;2022-09-16T10:40:13;4.75;;;0.93;;
59239;SDS011;45010;53.640;10.578;2022-09-16T10:43:16;3.30;;;0.70;;
59239;SDS011;45010;53.640;10.578;2022-09-16T10:46:16;3.63;;;1.10;;
59239;SDS011;45010;53.640;10.578;2022-09-16T10:49:19;4.00;;;0.80;;
59239;SDS011;45010;53.640;10.578;2022-09-16T10:52:28;4.10;;;1.10;;
59239;SDS011;45010;53.640;10.578;2022-09-16T10:55:40;4.88;;;1.15;;
59239;SDS011;45010;53.640;10.578;2022-09-16T10:58:40;3.50;;;1.08;;
59239;SDS011;45010;53.640;10.578;2022-09-16T11:28:41;4.40;;;1.00;;
59239;SDS011;45010;53.640;10.578;2022-09-16T11:35:18;4.35;;;1.08;;
59239;SDS011;45010;53.640;10.578;2022-09-16T11:38:32;3.45;;;0.73;;
59239;SDS011;45010;53.640;10.578;2022-09-16T11:44:50;5.93;;;0.90;;
59239;SDS011;45010;53.640;10.578;2022-09-16T11:55:05;5.75;;;1.20;;
59239;SDS011;45010;53.640;10.578;2022-09-16T11:58:21;5.55;;;1.67;;
59239;SDS011;45010;53.640;10.578;2022-09-16T12:01:34;5.47;;;1.23;;
59239;SDS011;45010;53.640;10.578;2022-09-16T12:04:41;5.35;;;1.17;;
59239;SDS011;45010;53.640;10.578;2022-09-16T12:11:34;5.85;;;1.27;;
59239;SDS011;45010;53.640;10.578;2022-09-16T12:14:40;3.05;;;1.00;;
59239;SDS011;45010;53.640;10.578;2022-09-16T12:18:30;4.82;;;0.85;;
59239;SDS011;45010;53.640;10.578;2022-09-16T12:24:34;3.67;;;0.95;;
59239;SDS011;45010;53.640;10.578;2022-09-16T12:31:14;2.55;;;0.80;;
59239;SDS011;45010;53.640;10.578;2022-09-16T12:34:40;3.72;;;0.95;;
59239;SDS011;45010;53.640;10.578;2022-09-16T12:37:48;2.90;;;0.93;;
59239;SDS011;45010;53.640;10.578;2022-09-16T12:47:11;2.25;;;0.65;;
59239;SDS011;45010;53.640;10.578;2022-09-16T12:50:49;3.33;;;0.77;;
59239;SDS011;45010;53.640;10.578;2022-09-16T12:57:43;2.05;;;0.60;;
59239;SDS011;45010;53.640;10.578;2022-09-16T13:04:44;2.47;;;0.88;;
59239;SDS011;45010;53.640;10.578;2022-09-16T13:07:48;2.63;;;0.73;;
59239;SDS011;45010;53.640;10.578;2022-09-16T13:10:56;2.80;;;0.80;;
59239;SDS011;45010;53.640;10.578;2022-09-16T13:13:57;3.67;;;0.95;;
59239;SDS011;45010;53.640;10.578;2022-09-16T13:16:58;2.90;;;0.77;;
59239;SDS011;45010;53.640;10.578;2022-09-16T13:23:23;1.98;;;0.77;;
59239;SDS011;45010;53.640;10.578;2022-09-16T13:26:38;3.08;;;0.70;;
59239;SDS011;45010;53.640;10.578;2022-09-16T13:29:43;4.03;;;1.02;;
59239;SDS011;45010;53.640;10.578;2022-09-16T13:36:01;2.10;;;0.80;;
59239;SDS011;45010;53.640;10.578;2022-09-16T13:39:04;3.05;;;0.70;;
59239;SDS011;45010;53.640;10.578;2022-09-16T13:42:16;1.10;;;0.70;;
59239;SDS011;45010;53.640;10.578;2022-09-16T13:45:29;2.75;;;0.60;;
59239;SDS011;45010;53.640;10.578;2022-09-16T13:48:35;3.45;;;0.65;;
59239;SDS011;45010;53.640;10.578;2022-09-16T13:51:44;2.80;;;0.70;;
59239;SDS011;45010;53.640;10.578;2022-09-16T13:54:50;2.15;;;0.57;;
59239;SDS011;45010;53.640;10.578;2022-09-16T13:57:54;2.65;;;0.57;;
59239;SDS011;45010;53.640;10.578;2022-09-16T14:01:10;4.05;;;0.57;;
59239;SDS011;45010;53.640;10.578;2022-09-16T14:04:21;2.72;;;0.60;;
59239;SDS011;45010;53.640;10.578;2022-09-16T14:14:25;2.53;;;0.73;;
59239;SDS011;45010;53.640;10.578;2022-09-16T14:17:31;1.90;;;0.50;;
59239;SDS011;45010;53.640;10.578;2022-09-16T14:20:37;1.55;;;0.60;;
59239;SDS011;45010;53.640;10.578;2022-09-16T14:23:39;2.90;;;0.52;;
59239;SDS011;45010;53.640;10.578;2022-09-16T14:26:48;1.73;;;0.60;;
59239;SDS011;45010;53.640;10.578;2022-09-16T14:30:14;2.08;;;0.63;;
59239;SDS011;45010;53.640;10.578;2022-09-16T14:33:16;1.58;;;0.50;;
59239;SDS011;45010;53.640;10.578;2022-09-16T14:36:31;0.85;;;0.30;;
59239;SDS011;45010;53.640;10.578;2022-09-16T14:39:35;1.42;;;0.50;;
59239;SDS011;45010;53.640;10.578;2022-09-16T14:42:50;2.38;;;0.50;;
59239;SDS011;45010;53.640;10.578;2022-09-16T14:45:53;2.08;;;0.70;;
59239;SDS011;45010;53.640;10.578;2022-09-16T14:48:56;2.92;;;0.40;;
59239;SDS011;45010;53.640;10.578;2022-09-16T14:51:58;4.38;;;0.52;;
59239;SDS011;45010;53.640;10.578;2022-09-16T14:55:19;3.13;;;0.70;;
59239;SDS011;45010;53.640;10.578;2022-09-16T14:58:22;3.60;;;0.55;;
59239;SDS011;45010;53.640;10.578;2022-09-16T15:01:27;2.03;;;0.50;;
59239;SDS011;45010;53.640;10.578;2022-09-16T15:04:28;1.55;;;0.50;;
59239;SDS011;45010;53.640;10.578;2022-09-16T15:07:33;2.50;;;0.50;;
59239;SDS011;45010;53.640;10.578;2022-09-16T15:10:36;3.20;;;0.40;;
59239;SDS011;45010;53.640;10.578;2022-09-16T15:13:37;2.17;;;0.32;;
59239;SDS011;45010;53.640;10.578;2022-09-16T15:16:39;2.75;;;0.40;;
59239;SDS011;45010;53.640;10.578;2022-09-16T15:19:46;1.25;;;0.40;;
59239;SDS011;45010;53.640;10.578;2022-09-16T15:22:53;3.53;;;0.30;;
59239;SDS011;45010;53.640;10.578;2022-09-16T15:25:57;3.55;;;0.45;;
59239;SDS011;45010;53.640;10.578;2022-09-16T15:32:18;1.75;;;0.47;;
59239;SDS011;45010;53.640;10.578;2022-09-16T15:35:25;2.60;;;0.43;;
59239;SDS011;45010;53.640;10.578;2022-09-16T15:38:26;1.63;;;0.40;;
59239;SDS011;45010;53.640;10.578;2022-09-16T15:41:27;3.08;;;0.50;;
59239;SDS011;45010;53.640;10.578;2022-09-16T15:44:27;0.60;;;0.20;;
59239;SDS011;45010;53.640;10.578;2022-09-16T15:47:36;2.17;;;0.40;;
59239;SDS011;45010;53.640;10.578;2022-09-16T15:50:48;1.58;;;0.40;;
59239;SDS011;45010;53.640;10.578;2022-09-16T15:53:53;1.30;;;0.40;;
59239;SDS011;45010;53.640;10.578;2022-09-16T16:00:03;1.17;;;0.35;;
59239;SDS011;45010;53.640;10.578;2022-09-16T16:03:16;2.30;;;0.47;;
59239;SDS011;45010;53.640;10.578;2022-09-16T16:06:20;0.80;;;0.30;;
59239;SDS011;45010;53.640;10.578;2022-09-16T16:09:41;1.98;;;0.30;;
59239;SDS011;45010;53.640;10.578;2022-09-16T16:12:43;1.67;;;0.50;;
59239;SDS011;45010;53.640;10.578;2022-09-16T16:15:47;3.35;;;0.50;;
59239;SDS011;45010;53.640;10.578;2022-09-16T16:18:48;0.88;;;0.60;;
59239;SDS011;45010;53.640;10.578;2022-09-16T16:21:48;0.45;;;0.17;;
59239;SDS011;45010;53.640;10.578;2022-09-16T16:24:48;2.33;;;0.40;;
59239;SDS011;45010;53.640;10.578;2022-09-16T16:27:49;1.70;;;0.40;;
59239;SDS011;45010;53.640;10.578;2022-09-16T16:30:49;1.67;;;0.50;;
59239;SDS011;45010;53.640;10.578;2022-09-16T16:33:49;1.63;;;0.52;;
59239;SDS011;45010;53.640;10.578;2022-09-16T16:36:50;2.70;;;0.73;;
59239;SDS011;45010;53.640;10.578;2022-09-16T16:39:50;3.03;;;1.38;;
59239;SDS011;45010;53.640;10.578;2022-09-16T16:42:51;4.85;;;1.83;;
59239;SDS011;45010;53.640;10.578;2022-09-16T16:45:52;2.97;;;1.45;;
59239;SDS011;45010;53.640;10.578;2022-09-16T16:48:56;3.72;;;1.73;;
59239;SDS011;45010;53.640;10.578;2022-09-16T16:51:56;3.67;;;1.30;;
59239;SDS011;45010;53.640;10.578;2022-09-16T16:54:56;3.90;;;1.50;;
59239;SDS011;45010;53.640;10.578;2022-09-16T16:57:57;4.10;;;1.40;;
59239;SDS011;45010;53.640;10.578;2022-09-16T17:01:07;2.67;;;1.17;;
59239;SDS011;45010;53.640;10.578;2022-09-16T17:04:08;4.80;;;1.75;;
59239;SDS011;45010;53.640;10.578;2022-09-16T17:07:09;5.70;;;1.30;;
59239;SDS011;45010;53.640;10.578;2022-09-16T17:10:10;4.03;;;1.45;;
59239;SDS011;45010;53.640;10.578;2022-09-16T17:13:10;5.25;;;1.20;;
59239;SDS011;45010;53.640;10.578;2022-09-16T17:16:11;5.22;;;1.10;;
59239;SDS011;45010;53.640;10.578;2022-09-16T17:19:14;2.25;;;1.00;;
59239;SDS011;45010;53.640;10.578;2022-09-16T17:22:15;3.92;;;1.30;;
59239;SDS011;45010;53.640;10.578;2022-09-16T17:25:16;3.33;;;0.90;;
59239;SDS011;45010;53.640;10.578;2022-09-16T17:28:16;4.05;;;1.02;;
59239;SDS011;45010;53.640;10.578;2022-09-16T17:31:18;3.45;;;1.13;;
59239;SDS011;45010;53.640;10.578;2022-09-16T17:34:21;3.25;;;0.80;;
59239;SDS011;45010;53.640;10.578;2022-09-16T17:37:21;4.75;;;0.90;;
59239;SDS011;45010;53.640;10.578;2022-09-16T17:40:22;3.28;;;1.25;;
59239;SDS011;45010;53.640;10.578;2022-09-16T17:43:24;3.85;;;1.17;;
59239;SDS011;45010;53.640;10.578;2022-09-16T17:46:25;4.88;;;1.15;;
59239;SDS011;45010;53.640;10.578;2022-09-16T17:49:28;1.88;;;0.63;;
59239;SDS011;45010;53.640;10.578;2022-09-16T17:52:29;3.08;;;0.98;;
59239;SDS011;45010;53.640;10.578;2022-09-16T17:55:29;3.08;;;0.90;;
59239;SDS011;45010;53.640;10.578;2022-09-16T17:58:30;2.50;;;0.90;;
59239;SDS011;45010;53.640;10.578;2022-09-16T18:01:30;2.22;;;0.88;;
59239;SDS011;45010;53.640;10.578;2022-09-16T18:04:31;2.97;;;1.00;;
59239;SDS011;45010;53.640;10.578;2022-09-16T18:07:31;2.35;;;0.93;;
59239;SDS011;45010;53.640;10.578;2022-09-16T18:10:31;4.22;;;1.17;;
59239;SDS011;45010;53.640;10.578;2022-09-16T18:13:32;2.47;;;0.80;;
59239;SDS011;45010;53.640;10.578;2022-09-16T18:16:33;3.58;;;0.95;;
59239;SDS011;45010;53.640;10.578;2022-09-16T18:19:34;2.63;;;1.30;;
59239;SDS011;45010;53.640;10.578;2022-09-16T18:22:34;2.70;;;0.63;;
59239;SDS011;45010;53.640;10.578;2022-09-16T18:25:37;1.73;;;0.98;;
59239;SDS011;45010;53.640;10.578;2022-09-16T18:28:38;1.88;;;0.80;;
59239;SDS011;45010;53.640;10.578;2022-09-16T18:31:42;3.42;;;0.75;;
59239;SDS011;45010;53.640;10.578;2022-09-16T18:34:44;2.22;;;0.90;;
59239;SDS011;45010;53.640;10.578;2022-09-16T18:37:45;1.58;;;0.80;;
59239;SDS011;45010;53.640;10.578;2022-09-16T18:40:45;2.38;;;0.63;;
59239;SDS011;45010;53.640;10.578;2022-09-16T18:43:46;3.00;;;0.88;;
59239;SDS011;45010;53.640;10.578;2022-09-16T18:46:50;3.53;;;0.82;;
59239;SDS011;45010;53.640;10.578;2022-09-16T18:49:52;1.85;;;0.65;;
59239;SDS011;45010;53.640;10.578;2022-09-16T18:52:52;2.45;;;0.90;;
59239;SDS011;45010;53.640;10.578;2022-09-16T18:55:53;2.40;;;0.82;;
59239;SDS011;45010;53.640;10.578;2022-09-16T18:58:58;1.83;;;0.80;;
59239;SDS011;45010;53.640;10.578;2022-09-16T19:02:00;1.30;;;0.70;;
59239;SDS011;45010;53.640;10.578;2022-09-16T19:05:02;1.85;;;1.10;;
59239;SDS011;45010;53.640;10.578;2022-09-16T19:08:03;3.63;;;0.77;;
59239;SDS011;45010;53.640;10.578;2022-09-16T19:11:03;1.55;;;0.70;;
59239;SDS011;45010;53.640;10.578;2022-09-16T19:14:05;2.85;;;0.90;;
59239;SDS011;45010;53.640;10.578;2022-09-16T19:17:08;2.90;;;0.90;;
59239;SDS011;45010;53.640;10.578;2022-09-16T19:20:08;2.95;;;0.93;;
59239;SDS011;45010;53.640;10.578;2022-09-16T19:23:09;1.88;;;0.93;;
59239;SDS011;45010;53.640;10.578;2022-09-16T19:26:09;1.60;;;0.85;;
59239;SDS011;45010;53.640;10.578;2022-09-16T19:29:10;1.38;;;0.50;;
59239;SDS011;45010;53.640;10.578;2022-09-16T19:32:11;1.63;;;0.80;;
59239;SDS011;45010;53.640;10.578;2022-09-16T19:35:11;1.38;;;0.55;;
59239;SDS011;45010;53.640;10.578;2022-09-16T19:38:12;0.80;;;0.40;;
59239;SDS011;45010;53.640;10.578;2022-09-16T19:41:12;2.08;;;0.88;;
59239;SDS011;45010;53.640;10.578;2022-09-16T19:44:15;3.47;;;0.55;;
59239;SDS011;45010;53.640;10.578;2022-09-16T19:47:16;2.03;;;0.70;;
59239;SDS011;45010;53.640;10.578;2022-09-16T19:50:16;1.02;;;0.60;;
59239;SDS011;45010;53.640;10.578;2022-09-16T19:53:17;1.85;;;0.40;;
59239;SDS011;45010;53.640;10.578;2022-09-16T19:56:22;2.13;;;0.68;;
59239;SDS011;45010;53.640;10.578;2022-09-16T19:59:25;1.25;;;0.50;;
59239;SDS011;45010;53.640;10.578;2022-09-16T20:02:25;1.05;;;0.60;;
59239;SDS011;45010;53.640;10.578;2022-09-16T20:05:26;2.35;;;0.90;;
59239;SDS011;45010;53.640;10.578;2022-09-16T20:08:27;1.52;;;0.50;;
59239;SDS011;45010;53.640;10.578;2022-09-16T20:11:29;0.90;;;0.65;;
59239;SDS011;45010;53.640;10.578;2022-09-16T20:14:30;1.65;;;0.60;;
59239;SDS011;45010;53.640;10.578;2022-09-16T20:17:32;1.15;;;0.50;;
59239;SDS011;45010;53.640;10.578;2022-09-16T20:20:34;1.40;;;0.77;;
59239;SDS011;45010;53.640;10.578;2022-09-16T20:23:35;2.30;;;0.80;;
59239;SDS011;45010;53.640;10.578;2022-09-16T20:26:36;1.50;;;0.80;;
59239;SDS011;45010;53.640;10.578;2022-09-16T20:29:36;1.55;;;0.50;;
59239;SDS011;45010;53.640;10.578;2022-09-16T20:32:36;2.28;;;0.70;;